Aix Les Milles, France

9:26 AM CEST on September 25, 2016 (GMT +0200)
Chemin du Serre | | Change Station

Elev 452 ft 43.50 °N, 5.39 °E | Updated 10 minutes ago

Clear
Clear
57.7 °F
Feels Like 57.7 °F
N
3.1
Wind Variable Wind from NNE
Gusts 14.9 mph

Today
High -- | Low -- °F
--% Chance of Precip.
Yesterday
High -- | Low -- °F
Precip. -- in
Pressure 30.15 in
Visibility -9999.0 miles
Clouds
Dew Point 55 °F
Humidity 89%
Rainfall Not available.
Snow Depth Not available.
7:29 AM 7:29 PM
Waning Crescent, 30% visible
METAR LFML 250700Z AUTO 08003KT 040V110 CAVOK 20/14 Q1021 NOSIG
Pressure 30.15 in
Visibility -9999.0 miles
Clouds
Dew Point 55 °F
Humidity 89%
Rainfall Not available.
Snow Depth Not available.
7:29 AM 7:29 PM
Waning Crescent, 30% visible
METAR LFML 250700Z AUTO 08003KT 040V110 CAVOK 20/14 Q1021 NOSIG

10-Day Weather Forecast

×

Almanac

Astronomy

Sep. 25, 2016 Rise Set
Actual Time
Civil Twilight
Nautical Twilight
Astronomical Twilight
Moon
Length of Visible Light
Length of Day
Tomorrow will be .
, % of the Moon is Illuminated

Today's Extremes

Country Highs Country Lows

Community

WunderPhotos

Upload Photos

1,941,554 photos uploaded!

WunderBlog® & News

Nearby

Air Quality

  Air Quality AQ Index Pollutant
Not available.

Snow Depth

Station Depth Elevation

Earthquake Activity

City Distance Mag. Time & Date
Minimum magnitude displayed is 2.5.

Coastal Water Temperatures

Place Temperature

Stations

Nearby Weather Stations

Station Location Temp. Windchill Dew Point Humidity Wind Precip. Elev Updated Type